Clarksburg, Ohio
Current Conditions -  °F | °C
As of 9:14 AM on Sunday 21 Dec 2014 (Local Time) from KRZT Reporting Station
Overcast Overcast  
Wind Chill: 30°   Ceiling: 2100
Heat Index: 30°   Visibility: 10mi
Dew Point: 23°   Wind: 0mph
Humidity: 75%   Direction: NA
Pressure: 30.33"   Gusts: NA
Location:  39.51°N, 83.15°W
Report Text: KRZT 211414Z AUTO 00000KT 10SM OVC021 M01/M05 A3033 RMK AO2
Loading
Personal Weather Stations






























Interactive Weather Map New forecast layout! Learn more

10-Day Weather Forecast

Advertisements
Track Severe Weather on mobile